createdAt,value
2023-02-13T00:01:08.258Z,7.70
2023-02-13T00:03:36.491Z,7.70
2023-02-13T00:06:04.954Z,7.60
2023-02-13T00:08:34.621Z,7.70
2023-02-13T00:11:03.093Z,7.70
2023-02-13T00:13:31.319Z,7.60
2023-02-13T00:16:00.590Z,7.70
2023-02-13T00:18:29.402Z,7.60
2023-02-13T00:21:01.803Z,7.70
2023-02-13T00:23:31.566Z,7.60
2023-02-13T00:26:02.181Z,7.60
2023-02-13T00:28:30.491Z,7.60
2023-02-13T00:31:05.009Z,7.50
2023-02-13T00:33:33.511Z,7.60
2023-02-13T00:36:09.314Z,7.50
2023-02-13T00:38:38.147Z,7.60
2023-02-13T00:41:08.126Z,7.60
2023-02-13T00:43:36.870Z,7.60
2023-02-13T00:46:05.335Z,7.50
2023-02-13T00:48:35.030Z,7.60
2023-02-13T00:51:03.496Z,7.60
2023-02-13T00:53:31.901Z,7.60
2023-02-13T00:56:00.318Z,7.60
2023-02-13T00:58:30.301Z,7.60
2023-02-13T01:00:58.881Z,7.60
2023-02-13T01:03:27.858Z,7.60
2023-02-13T01:05:57.386Z,7.60
2023-02-13T01:08:28.299Z,7.60
2023-02-13T01:10:57.645Z,7.60
2023-02-13T01:13:26.376Z,7.50
2023-02-13T01:15:56.071Z,7.60
2023-02-13T01:18:24.397Z,7.60
2023-02-13T01:21:00.710Z,7.60
2023-02-13T01:23:31.866Z,7.60
2023-02-13T01:26:00.265Z,7.50
2023-02-13T01:28:28.753Z,7.60
2023-02-13T01:30:59.773Z,7.60
2023-02-13T01:33:29.543Z,7.60
2023-02-13T01:35:58.258Z,7.60
2023-02-13T01:38:26.477Z,7.60
2023-02-13T01:40:55.809Z,7.60
2023-02-13T01:43:24.537Z,7.60
2023-02-13T01:45:55.796Z,7.70
2023-02-13T01:48:26.864Z,7.60
2023-02-13T01:50:58.777Z,7.60
2023-02-13T01:53:29.639Z,7.60
2023-02-13T01:56:00.345Z,7.70
2023-02-13T01:58:32.830Z,7.60
2023-02-13T02:01:01.783Z,7.60
2023-02-13T02:03:33.810Z,7.60
2023-02-13T02:06:02.736Z,7.50
2023-02-13T02:08:31.629Z,7.50
2023-02-13T02:11:10.755Z,7.50
2023-02-13T02:13:39.048Z,7.50
2023-02-13T02:16:07.523Z,7.50
2023-02-13T02:18:37.213Z,7.50
2023-02-13T02:21:47.046Z,7.50
2023-02-13T02:24:46.232Z,7.50
2023-02-13T02:27:49.435Z,7.50
2023-02-13T02:30:50.823Z,7.60
2023-02-13T02:33:27.742Z,7.50
2023-02-13T02:36:02.817Z,7.50
2023-02-13T02:38:56.221Z,7.50
2023-02-13T02:41:43.027Z,7.50
2023-02-13T02:44:21.264Z,7.50
2023-02-13T02:47:11.893Z,7.40
2023-02-13T02:50:02.202Z,7.40
2023-02-13T02:52:43.396Z,7.40
2023-02-13T02:55:16.892Z,7.30
2023-02-13T02:58:05.194Z,7.30
2023-02-13T03:00:52.001Z,7.30
2023-02-13T03:03:39.379Z,7.30
2023-02-13T03:06:14.213Z,7.30
2023-02-13T03:09:01.923Z,7.30
2023-02-13T03:11:47.312Z,7.30
2023-02-13T03:14:19.064Z,7.30
2023-02-13T03:17:05.277Z,7.30
2023-02-13T03:19:59.708Z,7.40
2023-02-13T03:22:38.096Z,7.30
2023-02-13T03:25:12.320Z,7.40
2023-02-13T03:28:04.596Z,7.40
2023-02-13T03:30:40.534Z,7.40
2023-02-13T03:33:19.532Z,7.40
2023-02-13T03:36:08.369Z,7.40
2023-02-13T03:38:43.636Z,7.30
2023-02-13T03:41:21.102Z,7.40
2023-02-13T03:43:57.956Z,7.40
2023-02-13T03:46:27.768Z,7.30
2023-02-13T03:49:14.822Z,7.30
2023-02-13T03:51:47.273Z,7.30
2023-02-13T03:54:21.322Z,7.30
2023-02-13T03:57:08.977Z,7.30
2023-02-13T03:59:38.245Z,7.40
2023-02-13T04:02:11.592Z,7.40
2023-02-13T04:04:47.516Z,7.40
2023-02-13T04:07:29.694Z,7.40
2023-02-13T04:10:00.501Z,7.40
2023-02-13T04:12:36.654Z,7.40
2023-02-13T04:15:08.538Z,7.40
2023-02-13T04:17:39.366Z,7.30
2023-02-13T04:20:09.848Z,7.30
2023-02-13T04:22:44.102Z,7.30
2023-02-13T04:25:15.055Z,7.40
2023-02-13T04:27:43.665Z,7.30
2023-02-13T04:30:13.166Z,7.30
2023-02-13T04:32:41.433Z,7.30
2023-02-13T04:35:11.628Z,7.30
2023-02-13T04:37:39.906Z,7.30
2023-02-13T04:40:09.120Z,7.30
2023-02-13T04:42:38.788Z,7.30
2023-02-13T04:45:07.391Z,7.30
2023-02-13T04:47:35.624Z,7.30
2023-02-13T04:50:03.825Z,7.30
2023-02-13T04:52:32.020Z,7.30
2023-02-13T04:55:00.205Z,7.30
2023-02-13T04:57:28.458Z,7.30
2023-02-13T04:59:58.062Z,7.20
2023-02-13T05:02:26.381Z,7.30
2023-02-13T05:04:54.600Z,7.40
2023-02-13T05:07:22.826Z,7.30
2023-02-13T05:09:51.082Z,7.30
2023-02-13T05:12:19.332Z,7.30
2023-02-13T05:14:47.814Z,7.30
2023-02-13T05:17:17.559Z,7.30
2023-02-13T05:19:45.834Z,7.30
2023-02-13T05:22:31.526Z,7.30
2023-02-13T05:24:59.759Z,7.20
2023-02-13T05:27:28.018Z,7.30
2023-02-13T05:29:56.233Z,7.30
2023-02-13T05:32:25.885Z,7.30
2023-02-13T05:34:54.115Z,7.30
2023-02-13T05:37:22.349Z,7.30
2023-02-13T05:39:50.553Z,7.20
2023-02-13T05:42:18.741Z,7.20
2023-02-13T05:44:46.956Z,7.20
2023-02-13T05:47:15.175Z,7.20
2023-02-13T05:49:44.796Z,7.30
2023-02-13T05:52:13.063Z,7.20
2023-02-13T05:54:41.273Z,7.20
2023-02-13T05:57:09.539Z,7.20
2023-02-13T05:59:37.805Z,7.20
2023-02-13T06:02:06.049Z,7.20
2023-02-13T06:04:34.437Z,7.20
2023-02-13T06:07:04.209Z,7.20
2023-02-13T06:09:32.442Z,7.20
2023-02-13T06:12:00.660Z,7.20
2023-02-13T06:14:28.882Z,7.10
2023-02-13T06:16:57.162Z,7.20
2023-02-13T06:19:25.437Z,7.20
2023-02-13T06:21:53.634Z,7.20
2023-02-13T06:24:23.582Z,7.20
2023-02-13T06:26:51.822Z,7.20
2023-02-13T06:29:20.205Z,7.20
2023-02-13T06:31:48.527Z,7.30
2023-02-13T06:34:16.935Z,7.30
2023-02-13T06:36:45.212Z,7.30
2023-02-13T06:39:13.559Z,7.30
2023-02-13T06:41:43.305Z,7.30
2023-02-13T06:44:11.553Z,7.30
2023-02-13T06:46:39.830Z,7.30
2023-02-13T06:49:08.149Z,7.30
2023-02-13T06:51:36.524Z,7.30
2023-02-13T06:54:04.951Z,7.30
2023-02-13T06:56:34.015Z,7.30
2023-02-13T06:59:03.718Z,7.30
2023-02-13T07:01:32.908Z,7.20
2023-02-13T07:04:01.142Z,7.30
2023-02-13T07:06:29.456Z,7.20
2023-02-13T07:08:58.098Z,7.10
2023-02-13T07:11:26.757Z,7.10
2023-02-13T07:13:55.038Z,7.10
2023-02-13T07:16:24.898Z,7.10
2023-02-13T07:18:53.111Z,7.10
2023-02-13T07:21:21.405Z,7.10
2023-02-13T07:23:49.708Z,7.10
2023-02-13T07:26:17.974Z,7.10
2023-02-13T07:28:46.280Z,7.10
2023-02-13T07:31:14.665Z,7.10
2023-02-13T07:33:44.427Z,7.10
2023-02-13T07:36:12.770Z,7.10
2023-02-13T07:38:41.026Z,7.10
2023-02-13T07:41:10.037Z,7.00
2023-02-13T07:43:38.271Z,7.00
2023-02-13T07:46:06.867Z,7.00
2023-02-13T07:48:35.157Z,7.00
2023-02-13T07:51:06.078Z,7.00
2023-02-13T07:53:34.342Z,7.00
2023-02-13T07:56:06.830Z,7.00
2023-02-13T07:58:35.079Z,7.00
2023-02-13T08:01:07.742Z,7.00
2023-02-13T08:03:36.238Z,7.00
2023-02-13T08:06:06.490Z,7.00
2023-02-13T08:08:35.034Z,7.00
2023-02-13T08:11:23.704Z,7.10
2023-02-13T08:13:51.971Z,7.00
2023-02-13T08:16:20.224Z,7.10
2023-02-13T08:18:48.512Z,7.00
2023-02-13T08:21:18.169Z,7.10
2023-02-13T08:23:46.462Z,7.10
2023-02-13T08:26:14.702Z,7.10
2023-02-13T08:28:43.047Z,7.10
2023-02-13T08:31:12.479Z,7.10
2023-02-13T08:33:41.514Z,7.10
2023-02-13T08:36:10.265Z,7.10
2023-02-13T08:41:09.384Z,7.10
2023-02-13T08:43:37.595Z,7.20
2023-02-13T08:46:06.321Z,7.10
2023-02-13T08:48:34.638Z,7.10
2023-02-13T08:51:07.178Z,7.10
2023-02-13T08:53:35.697Z,7.20
2023-02-13T08:56:06.366Z,7.20
2023-02-13T08:58:34.664Z,7.20
2023-02-13T09:01:06.555Z,7.20
2023-02-13T09:03:35.921Z,7.20
2023-02-13T09:06:05.089Z,7.20
2023-02-13T09:08:33.405Z,7.20
2023-02-13T09:11:02.878Z,7.20
2023-02-13T09:13:34.569Z,7.30
2023-02-13T09:16:06.136Z,7.30
2023-02-13T09:18:35.136Z,7.30
2023-02-13T09:21:05.148Z,7.30
2023-02-13T09:23:34.691Z,7.30
2023-02-13T09:26:03.383Z,7.30
2023-02-13T09:28:34.094Z,7.30
2023-02-13T09:31:06.826Z,7.40
2023-02-13T09:33:35.313Z,7.40
2023-02-13T09:36:06.711Z,7.40
2023-02-13T09:38:35.062Z,7.40
2023-02-13T09:41:06.905Z,7.40
2023-02-13T09:43:39.008Z,7.40
2023-02-13T09:46:13.492Z,7.40
2023-02-13T09:48:44.188Z,7.40
2023-02-13T09:51:15.924Z,7.50
2023-02-13T09:53:47.555Z,7.40
2023-02-13T09:56:19.505Z,7.50
2023-02-13T09:58:50.796Z,7.50
2023-02-13T10:01:27.554Z,7.50
2023-02-13T10:04:30.719Z,7.50
2023-02-13T10:07:09.144Z,7.40
2023-02-13T10:09:41.748Z,7.50
2023-02-13T10:12:23.020Z,7.50
2023-02-13T10:14:59.682Z,7.50
2023-02-13T10:17:31.092Z,7.50
2023-02-13T10:20:03.830Z,7.40
2023-02-13T10:22:34.509Z,7.50
2023-02-13T10:25:07.470Z,7.50
2023-02-13T10:27:37.263Z,7.50
2023-02-13T10:30:17.313Z,7.60
2023-02-13T10:32:52.063Z,7.60
2023-02-13T10:35:28.243Z,7.60
2023-02-13T10:37:58.483Z,7.60
2023-02-13T10:40:32.742Z,7.60
2023-02-13T10:43:07.584Z,7.60
2023-02-13T10:45:55.090Z,7.60
2023-02-13T10:48:34.993Z,7.60
2023-02-13T10:51:06.972Z,7.70
2023-02-13T10:53:44.917Z,7.70
2023-02-13T10:56:30.221Z,7.70
2023-02-13T10:59:24.847Z,7.60
2023-02-13T11:01:57.751Z,7.70
2023-02-13T11:04:26.135Z,7.70
2023-02-13T11:06:57.772Z,7.70
2023-02-13T11:09:26.954Z,7.70
2023-02-13T11:11:55.560Z,7.70
2023-02-13T11:14:25.348Z,7.70
2023-02-13T11:16:59.614Z,7.80
2023-02-13T11:19:32.620Z,7.80
2023-02-13T11:22:04.233Z,7.80
2023-02-13T11:24:32.958Z,7.80
2023-02-13T11:27:05.938Z,7.80
2023-02-13T11:29:35.889Z,7.90
2023-02-13T11:32:22.132Z,7.90
2023-02-13T11:34:51.966Z,7.90
2023-02-13T11:37:24.002Z,7.90
2023-02-13T11:39:53.519Z,7.80
2023-02-13T11:42:28.260Z,7.90
2023-02-13T11:44:59.710Z,8.00
2023-02-13T11:47:38.985Z,8.00
2023-02-13T11:50:20.435Z,8.00
2023-02-13T11:52:55.784Z,7.90
2023-02-13T11:55:32.908Z,7.90
2023-02-13T11:58:02.778Z,7.90
2023-02-13T12:00:40.066Z,8.00
2023-02-13T12:03:30.773Z,7.90
2023-02-13T12:06:04.062Z,8.00
2023-02-13T12:08:34.093Z,8.00
2023-02-13T12:11:03.730Z,7.90
2023-02-13T12:13:34.400Z,8.00
2023-02-13T12:16:05.325Z,8.00
2023-02-13T12:18:37.918Z,7.90
2023-02-13T12:21:28.276Z,8.00
2023-02-13T12:24:01.413Z,8.00
2023-02-13T12:26:33.575Z,8.00
2023-02-13T12:29:19.129Z,8.00
2023-02-13T12:31:55.999Z,8.00
2023-02-13T12:34:55.320Z,8.10
2023-02-13T12:37:45.648Z,8.10
2023-02-13T12:40:28.279Z,8.10
2023-02-13T12:43:08.595Z,8.20
2023-02-13T12:45:39.838Z,8.20
2023-02-13T12:48:21.264Z,8.20
2023-02-13T12:51:07.799Z,8.20
2023-02-13T12:54:09.074Z,8.20
2023-02-13T12:57:07.201Z,8.10
2023-02-13T12:59:46.074Z,8.10
2023-02-13T13:02:43.106Z,8.10
2023-02-13T13:05:20.652Z,8.10
2023-02-13T13:08:03.254Z,8.20
2023-02-13T13:10:42.260Z,8.30
2023-02-13T13:13:21.244Z,8.20
2023-02-13T13:15:55.434Z,8.20
2023-02-13T13:18:36.845Z,8.20
2023-02-13T13:21:19.827Z,8.20
2023-02-13T13:23:54.892Z,8.20
2023-02-13T13:26:32.101Z,8.20
2023-02-13T13:29:01.179Z,8.00
2023-02-13T13:31:29.717Z,8.10
2023-02-13T13:34:02.856Z,8.10
2023-02-13T13:36:38.154Z,8.10
2023-02-13T13:39:15.920Z,8.10
2023-02-13T13:41:49.694Z,8.10
2023-02-13T13:44:27.535Z,8.10
2023-02-13T13:47:00.350Z,8.10
2023-02-13T13:49:37.258Z,8.00
2023-02-13T13:52:20.620Z,8.10
2023-02-13T13:54:51.731Z,8.10
2023-02-13T13:57:20.942Z,8.00
2023-02-13T14:00:04.690Z,7.90
2023-02-13T14:02:41.955Z,8.00
2023-02-13T14:05:28.305Z,7.90
2023-02-13T14:07:58.199Z,7.90
2023-02-13T14:11:03.310Z,7.90
2023-02-13T14:13:33.355Z,7.90
2023-02-13T14:16:01.996Z,7.90
2023-02-13T14:18:31.241Z,7.80
2023-02-13T14:21:01.387Z,7.80
2023-02-13T14:23:50.223Z,7.90
2023-02-13T14:26:38.557Z,7.90
2023-02-13T14:29:32.862Z,7.80
2023-02-13T14:32:15.792Z,7.90
2023-02-13T14:34:44.576Z,7.90
2023-02-13T14:37:27.230Z,7.80
2023-02-13T14:40:40.399Z,7.80
2023-02-13T14:43:52.746Z,7.80
2023-02-13T14:46:26.530Z,7.70
2023-02-13T14:48:59.426Z,7.80
2023-02-13T14:51:33.100Z,7.80
2023-02-13T14:54:06.520Z,7.80
2023-02-13T14:56:34.980Z,7.70
2023-02-13T14:59:13.932Z,7.70
2023-02-13T15:01:48.200Z,7.70
2023-02-13T15:04:20.017Z,7.80
2023-02-13T15:06:50.152Z,7.70
2023-02-13T15:09:28.783Z,7.60
2023-02-13T15:11:57.054Z,7.60
2023-02-13T15:14:32.724Z,7.60
2023-02-13T15:17:06.991Z,7.60
2023-02-13T15:19:37.407Z,7.70
2023-02-13T15:22:07.815Z,7.70
2023-02-13T15:24:47.357Z,7.60
2023-02-13T15:27:20.082Z,7.60
2023-02-13T15:30:01.050Z,7.60
2023-02-13T15:32:32.468Z,7.50
2023-02-13T15:35:01.159Z,7.50
2023-02-13T15:37:31.214Z,7.50
2023-02-13T15:40:16.405Z,7.50
2023-02-13T15:42:44.627Z,7.40
2023-02-13T15:45:18.272Z,7.50
2023-02-13T15:47:47.071Z,7.40
2023-02-13T15:50:20.494Z,7.40
2023-02-13T15:52:49.093Z,7.30
2023-02-13T15:55:22.232Z,7.30
2023-02-13T15:57:51.272Z,7.30
2023-02-13T16:00:25.590Z,7.30
2023-02-13T16:02:54.692Z,7.40
2023-02-13T16:05:38.576Z,7.30
2023-02-13T16:08:32.646Z,7.40
2023-02-13T16:11:27.983Z,7.40
2023-02-13T16:14:04.630Z,7.40
2023-02-13T16:16:36.565Z,7.30
2023-02-13T16:19:05.351Z,7.30
2023-02-13T16:21:35.928Z,7.30
2023-02-13T16:24:07.586Z,7.30
2023-02-13T16:26:39.275Z,7.30
2023-02-13T16:29:11.617Z,7.20
2023-02-13T16:31:41.867Z,7.20
2023-02-13T16:34:24.130Z,7.30
2023-02-13T16:36:52.344Z,7.20
2023-02-13T16:39:23.665Z,7.30
2023-02-13T16:41:53.137Z,7.20
2023-02-13T16:44:29.525Z,7.20
2023-02-13T16:47:03.392Z,7.20
2023-02-13T16:49:33.624Z,7.20
2023-02-13T16:52:11.448Z,7.20
2023-02-13T16:54:48.729Z,7.30
2023-02-13T16:57:23.616Z,7.40
2023-02-13T17:00:02.038Z,7.30
2023-02-13T17:02:33.095Z,7.20
2023-02-13T17:05:16.732Z,7.20
2023-02-13T17:07:48.223Z,7.20
2023-02-13T17:10:21.064Z,7.20
2023-02-13T17:12:50.305Z,7.20
2023-02-13T17:15:20.346Z,7.20
2023-02-13T17:17:51.055Z,7.10
2023-02-13T17:20:21.035Z,7.10
2023-02-13T17:22:51.431Z,7.00
2023-02-13T17:25:22.546Z,7.10
2023-02-13T17:27:51.393Z,7.10
2023-02-13T17:30:21.567Z,7.00
2023-02-13T17:32:54.939Z,7.00
2023-02-13T17:35:23.226Z,7.00
2023-02-13T17:37:51.528Z,7.00
2023-02-13T17:40:21.159Z,7.00
2023-02-13T17:42:52.445Z,6.90
2023-02-13T17:45:23.440Z,6.90
2023-02-13T17:47:53.275Z,6.90
2023-02-13T17:50:22.026Z,6.90
2023-02-13T17:52:50.355Z,6.90
2023-02-13T17:55:21.165Z,6.90
2023-02-13T17:57:49.613Z,6.90
2023-02-13T18:00:20.142Z,6.90
2023-02-13T18:02:48.717Z,6.80
2023-02-13T18:05:19.351Z,6.90
2023-02-13T18:07:48.017Z,6.90
2023-02-13T18:10:18.035Z,6.90
2023-02-13T18:12:47.687Z,6.90
2023-02-13T18:15:16.127Z,6.90
2023-02-13T18:17:44.806Z,6.90
2023-02-13T18:20:15.144Z,6.90
2023-02-13T18:22:45.256Z,6.80
2023-02-13T18:25:14.560Z,6.80
2023-02-13T18:27:42.782Z,6.70
2023-02-13T18:30:12.989Z,6.70
2023-02-13T18:32:41.450Z,6.70
2023-02-13T18:35:09.865Z,6.70
2023-02-13T18:37:39.327Z,6.80
2023-02-13T18:40:10.290Z,6.70
2023-02-13T18:42:38.955Z,6.80
2023-02-13T18:45:07.975Z,6.80
2023-02-13T18:47:36.224Z,6.80
2023-02-13T18:50:04.995Z,6.80
2023-02-13T18:52:33.275Z,6.80
2023-02-13T18:55:01.565Z,6.80
2023-02-13T18:57:31.288Z,6.80
2023-02-13T18:59:59.555Z,6.80
2023-02-13T19:02:27.975Z,6.80
2023-02-13T19:04:56.305Z,6.80
2023-02-13T19:07:24.550Z,6.80
2023-02-13T19:09:53.701Z,6.80
2023-02-13T19:12:21.937Z,6.70
2023-02-13T19:14:51.667Z,6.80
2023-02-13T19:17:19.956Z,6.60
2023-02-13T19:19:48.855Z,6.50
2023-02-13T19:22:17.488Z,6.50
2023-02-13T19:24:45.648Z,6.50
2023-02-13T19:27:13.888Z,6.50
2023-02-13T19:29:42.099Z,6.50
2023-02-13T19:32:11.911Z,6.50
2023-02-13T19:34:40.191Z,6.60
2023-02-13T19:37:08.457Z,6.60
2023-02-13T19:39:36.689Z,6.60
2023-02-13T19:42:05.287Z,6.50
2023-02-13T19:44:33.506Z,6.50
2023-02-13T19:47:01.831Z,6.60
2023-02-13T19:49:31.449Z,6.60
2023-02-13T19:51:59.811Z,6.60
2023-02-13T19:54:28.192Z,6.60
2023-02-13T19:57:00.447Z,6.50
2023-02-13T19:59:28.710Z,6.50
2023-02-13T20:01:57.081Z,6.60
2023-02-13T20:04:25.702Z,6.60
2023-02-13T20:06:58.327Z,6.60
2023-02-13T20:09:26.613Z,6.60
2023-02-13T20:11:54.906Z,6.60
2023-02-13T20:14:23.250Z,6.60
2023-02-13T20:16:51.558Z,6.60
2023-02-13T20:19:19.852Z,6.60
2023-02-13T20:21:48.111Z,6.60
2023-02-13T20:24:17.965Z,6.60
2023-02-13T20:26:46.219Z,6.60
2023-02-13T20:29:14.455Z,6.60
2023-02-13T20:31:43.178Z,6.60
2023-02-13T20:34:11.943Z,6.60
2023-02-13T20:36:42.555Z,6.60
2023-02-13T20:39:15.110Z,6.60
2023-02-13T20:41:48.557Z,6.60
2023-02-13T20:44:17.433Z,6.50
2023-02-13T20:46:46.063Z,6.50
2023-02-13T20:49:18.855Z,6.50
2023-02-13T20:51:47.243Z,6.50
2023-02-13T20:54:15.523Z,6.50
2023-02-13T20:56:46.070Z,6.50
2023-02-13T20:59:14.354Z,6.50
2023-02-13T21:01:44.099Z,6.50
2023-02-13T21:04:14.846Z,6.50
2023-02-13T21:06:43.258Z,6.50
2023-02-13T21:09:11.723Z,6.40
2023-02-13T21:11:41.421Z,6.40
2023-02-13T21:14:11.755Z,6.50
2023-02-13T21:16:41.150Z,6.40
2023-02-13T21:19:13.663Z,6.40
2023-02-13T21:21:44.213Z,6.50
2023-02-13T21:24:15.372Z,6.50
2023-02-13T21:26:43.939Z,6.50
2023-02-13T21:29:14.013Z,6.50
2023-02-13T21:31:47.417Z,6.50
2023-02-13T21:34:16.687Z,6.50
2023-02-13T21:36:45.542Z,6.50
2023-02-13T21:39:14.532Z,6.40
2023-02-13T21:41:44.395Z,6.50
2023-02-13T21:44:15.181Z,6.50
2023-02-13T21:46:44.409Z,6.50
2023-02-13T21:49:14.286Z,6.40
2023-02-13T21:51:42.902Z,6.40
2023-02-13T21:54:11.785Z,6.40
2023-02-13T21:56:42.318Z,6.30
2023-02-13T21:59:15.069Z,6.30
2023-02-13T22:01:43.426Z,6.30
2023-02-13T22:04:12.029Z,6.30
2023-02-13T22:06:41.342Z,6.30
2023-02-13T22:09:11.917Z,6.30
2023-02-13T22:11:40.459Z,6.30
2023-02-13T22:14:09.816Z,6.40
2023-02-13T22:16:40.056Z,6.40
2023-02-13T22:19:12.527Z,6.30
2023-02-13T22:21:41.161Z,6.30
2023-02-13T22:24:09.537Z,6.30
2023-02-13T22:26:39.065Z,6.20
2023-02-13T22:29:09.216Z,6.20
2023-02-13T22:31:39.150Z,6.30
2023-02-13T22:34:08.080Z,6.30
2023-02-13T22:36:39.637Z,6.30
2023-02-13T22:39:08.399Z,6.30
2023-02-13T22:41:36.714Z,6.30
2023-02-13T22:44:05.285Z,6.30
2023-02-13T22:46:34.947Z,6.30
2023-02-13T22:49:04.976Z,6.30
2023-02-13T22:51:35.268Z,6.30
2023-02-13T22:54:04.423Z,6.30
2023-02-13T22:56:33.028Z,6.30
2023-02-13T22:59:01.586Z,6.30
2023-02-13T23:01:30.485Z,6.20
2023-02-13T23:03:59.247Z,6.20
2023-02-13T23:06:28.977Z,6.30
2023-02-13T23:08:57.757Z,6.30
2023-02-13T23:11:56.847Z,6.30
2023-02-13T23:14:25.654Z,6.30
2023-02-13T23:17:11.324Z,6.30
2023-02-13T23:19:39.496Z,6.30
2023-02-13T23:22:09.224Z,6.30
2023-02-13T23:24:37.462Z,6.20
2023-02-13T23:27:05.797Z,6.20
2023-02-13T23:29:34.079Z,6.20
2023-02-13T23:32:02.462Z,6.20
2023-02-13T23:34:30.762Z,6.30
2023-02-13T23:36:58.959Z,6.30
2023-02-13T23:39:28.697Z,6.30
2023-02-13T23:41:56.927Z,6.20
2023-02-13T23:44:25.152Z,6.30
2023-02-13T23:46:53.342Z,6.30
2023-02-13T23:49:22.217Z,6.20
2023-02-13T23:51:50.440Z,6.20
2023-02-13T23:54:20.624Z,6.20
2023-02-13T23:56:50.785Z,6.20
2023-02-13T23:59:19.976Z,6.20
